createdAt,value
2018-05-26T00:00:30.116Z,943.70
2018-05-26T00:01:38.194Z,943.70
2018-05-26T00:02:46.269Z,943.67
2018-05-26T00:03:54.354Z,943.67
2018-05-26T00:05:02.508Z,943.71
2018-05-26T00:06:10.452Z,943.66
2018-05-26T00:07:18.542Z,943.66
2018-05-26T00:08:26.607Z,943.71
2018-05-26T00:09:34.669Z,943.66
2018-05-26T00:10:42.849Z,943.66
2018-05-26T00:11:50.802Z,943.65
2018-05-26T00:12:58.869Z,943.64
2018-05-26T00:14:07.037Z,943.64
2018-05-26T00:15:15.018Z,943.63
2018-05-26T00:16:23.164Z,943.64
2018-05-26T00:17:31.127Z,943.64
2018-05-26T00:18:39.205Z,943.64
2018-05-26T00:19:47.282Z,943.66
2018-05-26T00:20:55.336Z,943.66
2018-05-26T00:22:03.498Z,943.65
2018-05-26T00:23:11.470Z,943.64
2018-05-26T00:24:19.527Z,943.64
2018-05-26T00:25:27.650Z,943.68
2018-05-26T00:26:35.671Z,943.67
2018-05-26T00:27:43.839Z,943.70
2018-05-26T00:28:51.817Z,943.70
2018-05-26T00:29:59.941Z,943.70
2018-05-26T00:31:07.969Z,943.65
2018-05-26T00:32:16.003Z,943.64
2018-05-26T00:33:24.160Z,943.64
2018-05-26T00:34:32.133Z,943.67
2018-05-26T00:35:40.194Z,943.67
2018-05-26T00:36:48.278Z,943.64
2018-05-26T00:37:56.344Z,943.62
2018-05-26T00:39:04.497Z,943.65
2018-05-26T00:40:12.470Z,943.68
2018-05-26T00:41:20.536Z,943.66
2018-05-26T00:42:28.608Z,943.63
2018-05-26T00:43:36.668Z,943.66
2018-05-26T00:44:44.822Z,943.67
2018-05-26T00:45:52.880Z,943.68
2018-05-26T00:47:00.856Z,943.66
2018-05-26T00:48:08.935Z,943.67
2018-05-26T00:49:16.999Z,943.68
2018-05-26T00:50:25.146Z,943.66
2018-05-26T00:51:33.118Z,943.66
2018-05-26T00:52:41.195Z,943.63
2018-05-26T00:53:49.262Z,943.66
2018-05-26T00:54:57.332Z,943.68
2018-05-26T00:56:05.509Z,943.66
2018-05-26T00:57:13.453Z,943.66
2018-05-26T00:58:21.512Z,943.69
2018-05-26T00:59:29.579Z,943.70
2018-05-26T01:00:37.656Z,943.74
2018-05-26T01:01:45.808Z,943.76
2018-05-26T01:02:53.797Z,943.72
2018-05-26T01:04:01.846Z,943.72
2018-05-26T01:05:09.905Z,943.74
2018-05-26T01:06:17.989Z,943.74
2018-05-26T01:07:26.184Z,943.73
2018-05-26T01:08:34.124Z,943.72
2018-05-26T01:09:42.195Z,943.72
2018-05-26T01:10:50.251Z,943.70
2018-05-26T01:11:58.333Z,943.71
2018-05-26T01:13:06.473Z,943.71
2018-05-26T01:14:14.439Z,943.70
2018-05-26T01:15:22.510Z,943.70
2018-05-26T01:16:30.590Z,943.73
2018-05-26T01:17:38.741Z,943.67
2018-05-26T01:18:46.811Z,943.67
2018-05-26T01:19:54.769Z,943.70
2018-05-26T01:21:02.850Z,943.66
2018-05-26T01:22:10.920Z,943.67
2018-05-26T01:23:18.976Z,943.65
2018-05-26T01:24:27.145Z,943.63
2018-05-26T01:25:35.108Z,943.61
2018-05-26T01:26:43.174Z,943.63
2018-05-26T01:27:51.251Z,943.57
2018-05-26T01:28:59.294Z,943.60
2018-05-26T01:30:07.455Z,943.58
2018-05-26T01:31:15.443Z,943.51
2018-05-26T01:32:23.508Z,943.55
2018-05-26T01:33:31.662Z,943.52
2018-05-26T01:34:39.620Z,943.57
2018-05-26T01:35:47.793Z,943.54
2018-05-26T01:36:55.764Z,943.57
2018-05-26T01:38:03.836Z,943.55
2018-05-26T01:39:11.906Z,943.60
2018-05-26T01:40:20.070Z,943.61
2018-05-26T01:41:28.129Z,943.57
2018-05-26T01:42:36.093Z,943.61
2018-05-26T01:43:44.157Z,943.55
2018-05-26T01:44:52.234Z,943.59
2018-05-26T01:46:00.301Z,943.57
2018-05-26T01:47:08.459Z,943.60
2018-05-26T01:48:16.431Z,943.58
2018-05-26T01:49:24.593Z,943.65
2018-05-26T01:50:32.574Z,943.62
2018-05-26T01:51:40.626Z,943.65
2018-05-26T01:52:48.786Z,943.64
2018-05-26T01:53:56.765Z,943.65
2018-05-26T01:55:04.840Z,943.67
2018-05-26T01:56:12.895Z,943.64
2018-05-26T01:57:20.965Z,943.63
2018-05-26T01:58:29.128Z,943.63
2018-05-26T01:59:37.096Z,943.61
2018-05-26T02:00:45.178Z,943.61
2018-05-26T02:01:53.247Z,943.62
2018-05-26T02:03:01.303Z,943.60
2018-05-26T02:04:09.440Z,943.59
2018-05-26T02:05:17.655Z,943.61
2018-05-26T02:06:25.496Z,943.56
2018-05-26T02:07:33.565Z,943.59
2018-05-26T02:08:41.638Z,943.59
2018-05-26T02:09:49.914Z,943.57
2018-05-26T02:10:57.779Z,943.57
2018-05-26T02:12:05.843Z,943.57
2018-05-26T02:13:13.907Z,943.56
2018-05-26T02:14:21.973Z,943.57
2018-05-26T02:15:30.115Z,943.56
2018-05-26T02:16:38.119Z,943.55
2018-05-26T02:17:46.176Z,943.51
2018-05-26T02:18:54.239Z,943.55
2018-05-26T02:20:02.318Z,943.57
2018-05-26T02:21:10.592Z,943.57
2018-05-26T02:22:18.451Z,943.55
2018-05-26T02:23:26.514Z,943.56
2018-05-26T02:24:34.575Z,943.54
2018-05-26T02:25:42.642Z,943.54
2018-05-26T02:26:50.795Z,943.58
2018-05-26T02:27:58.772Z,943.57
2018-05-26T02:29:06.868Z,943.58
2018-05-26T02:30:14.912Z,943.57
2018-05-26T02:31:23.010Z,943.59
2018-05-26T02:32:31.266Z,943.61
2018-05-26T02:33:39.113Z,943.58
2018-05-26T02:34:47.172Z,943.57
2018-05-26T02:35:55.249Z,943.57
2018-05-26T02:37:03.402Z,943.59
2018-05-26T02:38:11.595Z,943.56
2018-05-26T02:39:19.442Z,943.57
2018-05-26T02:40:27.511Z,943.53
2018-05-26T02:41:35.591Z,943.57
2018-05-26T02:42:43.664Z,943.53
2018-05-26T02:43:51.824Z,943.55
2018-05-26T02:44:59.743Z,943.55
2018-05-26T02:46:07.860Z,943.58
2018-05-26T02:47:15.907Z,943.56
2018-05-26T02:48:23.980Z,943.52
2018-05-26T02:49:32.265Z,943.56
2018-05-26T02:50:40.105Z,943.54
2018-05-26T02:51:48.172Z,943.55
2018-05-26T02:52:56.337Z,943.53
2018-05-26T02:54:04.314Z,943.52
2018-05-26T02:55:12.619Z,943.56
2018-05-26T02:56:20.467Z,943.57
2018-05-26T02:57:28.511Z,943.57
2018-05-26T02:58:36.587Z,943.60
2018-05-26T02:59:44.655Z,943.59
2018-05-26T03:00:52.802Z,943.62
2018-05-26T03:02:00.760Z,943.64
2018-05-26T03:03:08.843Z,943.67
2018-05-26T03:04:16.902Z,943.68
2018-05-26T03:05:24.965Z,943.67
2018-05-26T03:06:33.131Z,943.70
2018-05-26T03:07:41.111Z,943.70
2018-05-26T03:08:49.257Z,943.69
2018-05-26T03:09:57.234Z,943.69
2018-05-26T03:11:05.313Z,943.72
2018-05-26T03:12:13.479Z,943.70
2018-05-26T03:13:21.456Z,943.70
2018-05-26T03:14:29.473Z,943.70
2018-05-26T03:15:37.560Z,943.69
2018-05-26T03:16:45.628Z,943.72
2018-05-26T03:17:53.781Z,943.71
2018-05-26T03:19:01.791Z,943.71
2018-05-26T03:20:09.800Z,943.71
2018-05-26T03:21:17.911Z,943.72
2018-05-26T03:22:25.967Z,943.72
2018-05-26T03:23:34.132Z,943.73
2018-05-26T03:24:42.216Z,943.71
2018-05-26T03:25:50.138Z,943.71
2018-05-26T03:26:58.243Z,943.72
2018-05-26T03:28:06.309Z,943.73
2018-05-26T03:29:14.457Z,943.76
2018-05-26T03:30:22.428Z,943.77
2018-05-26T03:31:30.491Z,943.74
2018-05-26T03:32:38.571Z,943.76
2018-05-26T03:33:46.631Z,943.78
2018-05-26T03:34:54.781Z,943.80
2018-05-26T03:36:02.772Z,943.76
2018-05-26T03:37:10.819Z,943.78
2018-05-26T03:38:18.894Z,943.76
2018-05-26T03:39:26.956Z,943.78
2018-05-26T03:40:35.134Z,943.79
2018-05-26T03:41:43.100Z,943.81
2018-05-26T03:42:51.164Z,943.79
2018-05-26T03:43:59.224Z,943.81
2018-05-26T03:45:07.295Z,943.84
2018-05-26T03:46:15.466Z,943.86
2018-05-26T03:47:23.425Z,943.87
2018-05-26T03:48:31.485Z,943.86
2018-05-26T03:49:39.534Z,943.87
2018-05-26T03:50:47.630Z,943.90
2018-05-26T03:51:55.792Z,943.85
2018-05-26T03:53:03.763Z,943.91
2018-05-26T03:54:11.944Z,943.92
2018-05-26T03:55:19.857Z,943.92
2018-05-26T03:56:28.056Z,943.91
2018-05-26T03:57:36.105Z,943.93
2018-05-26T03:58:44.093Z,943.94
2018-05-26T03:59:52.170Z,943.92
2018-05-26T04:01:00.280Z,943.94
2018-05-26T04:02:08.293Z,943.94
2018-05-26T04:03:16.454Z,943.97
2018-05-26T04:04:24.424Z,943.98
2018-05-26T04:05:32.485Z,944.01
2018-05-26T04:06:40.543Z,944.04
2018-05-26T04:07:48.631Z,944.06
2018-05-26T04:08:56.908Z,944.08
2018-05-26T04:10:04.758Z,944.12
2018-05-26T04:11:12.820Z,944.12
2018-05-26T04:12:20.980Z,944.13
2018-05-26T04:13:28.943Z,944.13
2018-05-26T04:14:37.119Z,944.17
2018-05-26T04:15:45.097Z,944.17
2018-05-26T04:16:53.166Z,944.18
2018-05-26T04:18:01.222Z,944.19
2018-05-26T04:19:09.276Z,944.21
2018-05-26T04:20:17.439Z,944.23
2018-05-26T04:21:25.425Z,944.21
2018-05-26T04:22:33.503Z,944.27
2018-05-26T04:23:41.561Z,944.25
2018-05-26T04:24:49.604Z,944.27
2018-05-26T04:25:57.803Z,944.26
2018-05-26T04:27:05.763Z,944.26
2018-05-26T04:28:13.974Z,944.32
2018-05-26T04:29:21.899Z,944.35
2018-05-26T04:30:29.934Z,944.32
2018-05-26T04:31:38.127Z,944.34
2018-05-26T04:32:46.096Z,944.35
2018-05-26T04:33:54.151Z,944.37
2018-05-26T04:35:02.236Z,944.34
2018-05-26T04:36:10.303Z,944.39
2018-05-26T04:37:18.445Z,944.41
2018-05-26T04:38:26.436Z,944.41
2018-05-26T04:39:34.500Z,944.44
2018-05-26T04:40:42.580Z,944.46
2018-05-26T04:41:50.634Z,944.50
2018-05-26T04:42:58.801Z,944.46
2018-05-26T04:44:06.856Z,944.47
2018-05-26T04:45:14.839Z,944.47
2018-05-26T04:46:22.905Z,944.51
2018-05-26T04:47:30.969Z,944.51
2018-05-26T04:48:39.136Z,944.50
2018-05-26T04:49:47.115Z,944.52
2018-05-26T04:50:55.172Z,944.53
2018-05-26T04:52:03.242Z,944.50
2018-05-26T04:53:11.306Z,944.53
2018-05-26T04:54:19.460Z,944.53
2018-05-26T04:55:27.444Z,944.56
2018-05-26T04:56:35.518Z,944.56
2018-05-26T04:57:43.592Z,944.55
2018-05-26T04:58:51.651Z,944.53
2018-05-26T04:59:59.909Z,944.59
2018-05-26T05:01:07.794Z,944.64
2018-05-26T05:02:15.848Z,944.70
2018-05-26T05:03:23.926Z,944.79
2018-05-26T05:04:31.989Z,944.78
2018-05-26T05:05:40.145Z,944.75
2018-05-26T05:06:48.115Z,944.67
2018-05-26T05:07:56.207Z,944.59
2018-05-26T05:09:04.271Z,944.60
2018-05-26T05:10:12.517Z,944.55
2018-05-26T05:11:20.486Z,944.54
2018-05-26T05:12:28.474Z,944.53
2018-05-26T05:13:36.599Z,944.47
2018-05-26T05:14:44.613Z,944.50
2018-05-26T05:15:52.767Z,944.52
2018-05-26T05:17:00.834Z,944.52
2018-05-26T05:18:08.815Z,944.49
2018-05-26T05:19:16.874Z,944.52
2018-05-26T05:20:24.945Z,944.51
2018-05-26T05:21:33.005Z,944.52
2018-05-26T05:22:41.176Z,944.51
2018-05-26T05:23:49.145Z,944.53
2018-05-26T05:24:57.220Z,944.53
2018-05-26T05:26:05.287Z,944.53
2018-05-26T05:27:13.358Z,944.55
2018-05-26T05:28:21.513Z,944.57
2018-05-26T05:29:29.460Z,944.55
2018-05-26T05:30:37.567Z,944.60
2018-05-26T05:31:45.719Z,944.57
2018-05-26T05:32:53.704Z,944.57
2018-05-26T05:34:01.864Z,944.57
2018-05-26T05:35:09.799Z,944.57
2018-05-26T05:36:17.910Z,944.58
2018-05-26T05:37:25.984Z,944.60
2018-05-26T05:38:34.049Z,944.59
2018-05-26T05:39:42.202Z,944.61
2018-05-26T05:40:50.155Z,944.63
2018-05-26T05:41:58.260Z,944.61
2018-05-26T05:43:06.295Z,944.65
2018-05-26T05:44:14.374Z,944.64
2018-05-26T05:45:22.546Z,944.60
2018-05-26T05:46:30.507Z,944.62
2018-05-26T05:47:38.664Z,944.62
2018-05-26T05:48:46.652Z,944.65
2018-05-26T05:49:54.714Z,944.60
2018-05-26T05:51:02.878Z,944.65
2018-05-26T05:52:10.847Z,944.63
2018-05-26T05:53:18.923Z,944.62
2018-05-26T05:54:27.113Z,944.64
2018-05-26T05:55:35.056Z,944.66
2018-05-26T05:56:43.610Z,944.66
2018-05-26T05:57:51.178Z,944.69
2018-05-26T05:58:59.251Z,944.61
2018-05-26T06:00:07.325Z,944.66
2018-05-26T06:01:15.396Z,944.67
2018-05-26T06:02:23.559Z,944.65
2018-05-26T06:03:31.647Z,944.70
2018-05-26T06:04:39.576Z,944.65
2018-05-26T06:05:47.659Z,944.65
2018-05-26T06:06:55.741Z,944.69
2018-05-26T06:08:03.905Z,944.61
2018-05-26T06:09:11.888Z,944.60
2018-05-26T06:10:19.933Z,944.67
2018-05-26T06:11:28.017Z,944.64
2018-05-26T06:12:36.083Z,944.66
2018-05-26T06:13:44.249Z,944.68
2018-05-26T06:14:52.273Z,944.65
2018-05-26T06:16:00.269Z,944.70
2018-05-26T06:17:08.348Z,944.72
2018-05-26T06:18:16.419Z,944.76
2018-05-26T06:19:24.720Z,944.73
2018-05-26T06:20:32.569Z,944.75
2018-05-26T06:21:40.643Z,944.77
2018-05-26T06:22:48.713Z,944.75
2018-05-26T06:23:56.768Z,944.77
2018-05-26T06:25:05.079Z,944.79
2018-05-26T06:26:12.998Z,944.80
2018-05-26T06:27:20.983Z,944.86
2018-05-26T06:28:29.061Z,944.82
2018-05-26T06:29:37.131Z,944.85
2018-05-26T06:30:45.305Z,944.88
2018-05-26T06:31:53.278Z,944.87
2018-05-26T06:33:01.337Z,944.93
2018-05-26T06:34:09.388Z,944.91
2018-05-26T06:35:17.694Z,944.94
2018-05-26T06:36:26.042Z,944.92
2018-05-26T06:37:33.619Z,944.90
2018-05-26T06:38:41.714Z,944.89
2018-05-26T06:39:49.748Z,944.96
2018-05-26T06:40:57.843Z,944.93
2018-05-26T06:42:05.991Z,944.92
2018-05-26T06:43:13.946Z,944.94
2018-05-26T06:44:22.030Z,945.01
2018-05-26T06:45:30.087Z,945.01
2018-05-26T06:46:38.221Z,945.02
2018-05-26T06:47:46.330Z,945.00
2018-05-26T06:48:54.313Z,945.03
2018-05-26T06:50:02.384Z,945.03
2018-05-26T06:51:10.665Z,945.01
2018-05-26T06:52:18.503Z,945.02
2018-05-26T06:53:26.674Z,945.03
2018-05-26T06:54:34.643Z,945.02
2018-05-26T06:55:42.717Z,945.00
2018-05-26T06:56:50.809Z,944.97
2018-05-26T06:57:58.851Z,944.99
2018-05-26T06:59:07.223Z,945.05
2018-05-26T07:00:15.056Z,945.06
2018-05-26T07:01:23.061Z,945.07
2018-05-26T07:02:31.132Z,945.09
2018-05-26T07:03:39.198Z,945.09
2018-05-26T07:04:47.369Z,945.15
2018-05-26T07:05:55.345Z,945.21
2018-05-26T07:07:03.613Z,945.30
2018-05-26T07:08:11.485Z,945.28
2018-05-26T07:09:19.524Z,945.27
2018-05-26T07:10:27.739Z,945.26
2018-05-26T07:11:35.738Z,945.30
2018-05-26T07:12:44.209Z,945.39
2018-05-26T07:13:51.860Z,945.33
2018-05-26T07:14:59.893Z,945.45
2018-05-26T07:16:08.075Z,945.50
2018-05-26T07:17:16.047Z,945.50
2018-05-26T07:18:24.122Z,945.60
2018-05-26T07:19:32.193Z,945.51
2018-05-26T07:20:40.775Z,945.44
2018-05-26T07:21:48.817Z,945.39
2018-05-26T07:22:56.500Z,945.45
2018-05-26T07:24:04.490Z,945.45
2018-05-26T07:25:12.540Z,945.44
2018-05-26T07:26:20.683Z,945.58
2018-05-26T07:27:28.794Z,945.40
2018-05-26T07:28:36.756Z,945.49
2018-05-26T07:29:44.847Z,945.71
2018-05-26T07:30:52.919Z,945.94
2018-05-26T07:32:00.971Z,946.29
2018-05-26T07:33:09.170Z,946.43
2018-05-26T07:34:17.133Z,946.62
2018-05-26T07:35:25.196Z,946.78
2018-05-26T07:36:33.300Z,946.85
2018-05-26T07:37:41.777Z,946.96
2018-05-26T07:38:49.635Z,947.01
2018-05-26T07:39:57.512Z,947.07
2018-05-26T07:41:05.601Z,947.07
2018-05-26T07:42:13.667Z,947.10
2018-05-26T07:43:21.748Z,946.91
2018-05-26T07:44:29.880Z,947.04
2018-05-26T07:45:37.893Z,947.09
2018-05-26T07:46:45.960Z,947.36
2018-05-26T07:47:54.040Z,947.21
2018-05-26T07:49:02.126Z,947.35
2018-05-26T07:50:10.280Z,947.46
2018-05-26T07:51:18.264Z,947.56
2018-05-26T07:52:26.358Z,947.55
2018-05-26T07:53:34.428Z,947.60
2018-05-26T07:54:42.601Z,947.00
2018-05-26T07:55:50.673Z,947.68
2018-05-26T07:56:58.667Z,947.83
2018-05-26T07:58:06.741Z,947.99
2018-05-26T07:59:14.829Z,947.92
2018-05-26T08:00:22.913Z,948.27
2018-05-26T08:01:31.062Z,948.03
2018-05-26T08:02:39.063Z,947.64
2018-05-26T08:03:47.149Z,947.12
2018-05-26T08:04:55.223Z,946.84
2018-05-26T08:06:03.289Z,947.49
2018-05-26T08:07:11.466Z,948.52
2018-05-26T08:08:19.444Z,949.15
2018-05-26T08:09:27.533Z,949.09
2018-05-26T08:10:35.753Z,949.47
2018-05-26T08:11:43.684Z,949.59
2018-05-26T08:12:51.867Z,949.83
2018-05-26T08:13:59.838Z,950.25
2018-05-26T08:15:07.938Z,950.54
2018-05-26T08:16:16.015Z,950.05
2018-05-26T08:17:24.155Z,950.11
2018-05-26T08:18:32.273Z,950.37
2018-05-26T08:19:40.249Z,950.40
2018-05-26T08:20:48.336Z,950.26
2018-05-26T08:21:56.421Z,949.92
2018-05-26T08:23:04.499Z,949.87
2018-05-26T08:24:12.664Z,949.91
2018-05-26T08:25:20.665Z,949.72
2018-05-26T08:26:28.837Z,949.33
2018-05-26T08:27:36.818Z,949.91
2018-05-26T08:28:44.910Z,949.46
2018-05-26T08:29:53.083Z,949.30
2018-05-26T08:31:01.074Z,949.18
2018-05-26T08:32:09.140Z,949.49
2018-05-26T08:33:17.227Z,949.30
2018-05-26T08:34:25.342Z,949.20
2018-05-26T08:35:33.489Z,949.17
2018-05-26T08:36:41.470Z,949.75
2018-05-26T08:37:49.521Z,950.17
2018-05-26T08:38:57.628Z,949.75
2018-05-26T08:40:05.717Z,949.61
2018-05-26T08:41:13.893Z,949.52
2018-05-26T08:42:21.972Z,950.09
2018-05-26T08:43:29.931Z,949.89
2018-05-26T08:44:38.029Z,949.72
2018-05-26T08:45:46.128Z,949.71
2018-05-26T08:46:54.289Z,949.46
2018-05-26T08:48:02.279Z,949.69
2018-05-26T08:49:10.358Z,949.61
2018-05-26T08:50:18.444Z,949.76
2018-05-26T08:51:26.521Z,949.65
2018-05-26T08:52:34.695Z,949.45
2018-05-26T08:53:42.694Z,949.06
2018-05-26T08:54:50.848Z,948.85
2018-05-26T08:55:58.844Z,948.24
2018-05-26T08:57:06.933Z,948.10
2018-05-26T08:58:15.115Z,948.17
2018-05-26T08:59:23.105Z,947.85
2018-05-26T09:00:31.172Z,947.83
2018-05-26T09:01:39.308Z,947.70
2018-05-26T09:02:47.353Z,947.82
2018-05-26T09:03:55.525Z,947.99
2018-05-26T09:05:03.503Z,947.78
2018-05-26T09:06:11.591Z,947.65
2018-05-26T09:07:19.648Z,947.70
2018-05-26T09:08:27.760Z,947.49
2018-05-26T09:09:36.048Z,947.63
2018-05-26T09:10:43.921Z,947.54
2018-05-26T09:11:52.020Z,947.29
2018-05-26T09:13:00.072Z,947.20
2018-05-26T09:14:08.268Z,947.39
2018-05-26T09:15:16.347Z,947.30
2018-05-26T09:16:24.319Z,946.38
2018-05-26T09:17:32.393Z,946.02
2018-05-26T09:18:40.530Z,945.97
2018-05-26T09:19:48.561Z,945.99
2018-05-26T09:20:56.744Z,945.94
2018-05-26T09:22:04.741Z,945.89
2018-05-26T09:23:12.808Z,945.86
2018-05-26T09:24:20.880Z,945.83
2018-05-26T09:25:29.086Z,945.84
2018-05-26T09:26:37.287Z,945.90
2018-05-26T09:27:45.137Z,945.85
2018-05-26T09:28:53.204Z,945.83
2018-05-26T09:30:01.402Z,945.77
2018-05-26T09:31:09.352Z,945.83
2018-05-26T09:32:17.554Z,945.79
2018-05-26T09:33:25.531Z,945.78
2018-05-26T09:34:33.613Z,945.77
2018-05-26T09:35:41.705Z,945.79
2018-05-26T09:36:49.858Z,945.73
2018-05-26T09:37:58.082Z,945.75
2018-05-26T09:39:07.374Z,945.77
2018-05-26T09:40:14.538Z,945.72
2018-05-26T09:41:22.576Z,945.70
2018-05-26T09:42:30.764Z,945.69
2018-05-26T09:43:39.317Z,945.63
2018-05-26T09:44:46.840Z,945.70
2018-05-26T09:45:54.787Z,945.68
2018-05-26T09:47:02.470Z,945.69
2018-05-26T09:48:10.571Z,945.69
2018-05-26T09:49:18.719Z,945.65
2018-05-26T09:50:26.692Z,945.62
2018-05-26T09:51:34.789Z,945.68
2018-05-26T09:52:42.870Z,945.68
2018-05-26T09:53:50.940Z,945.66
2018-05-26T09:54:59.130Z,945.63
2018-05-26T09:56:07.140Z,945.67
2018-05-26T09:57:15.154Z,945.65
2018-05-26T09:58:23.252Z,945.65
2018-05-26T09:59:31.306Z,945.65
2018-05-26T10:00:39.596Z,945.68
2018-05-26T10:01:47.574Z,945.71
2018-05-26T10:02:55.579Z,945.71
2018-05-26T10:04:03.615Z,945.68
2018-05-26T10:05:11.682Z,945.66
2018-05-26T10:06:19.853Z,945.71
2018-05-26T10:07:27.839Z,945.65
2018-05-26T10:08:35.932Z,945.72
2018-05-26T10:09:43.987Z,945.71
2018-05-26T10:10:52.065Z,945.71
2018-05-26T10:12:00.229Z,945.71
2018-05-26T10:13:08.219Z,945.73
2018-05-26T10:14:16.291Z,945.74
2018-05-26T10:15:24.380Z,945.70
2018-05-26T10:16:32.460Z,945.72
2018-05-26T10:17:40.741Z,945.70
2018-05-26T10:18:48.592Z,945.71
2018-05-26T10:19:56.724Z,945.70
2018-05-26T10:21:04.742Z,945.68
2018-05-26T10:22:12.960Z,945.67
2018-05-26T10:23:20.986Z,945.69
2018-05-26T10:24:28.979Z,945.71
2018-05-26T10:25:37.042Z,945.70
2018-05-26T10:26:45.122Z,945.72
2018-05-26T10:27:53.201Z,945.69
2018-05-26T10:29:01.378Z,945.70
2018-05-26T10:30:09.319Z,945.66
2018-05-26T10:31:17.424Z,945.69
2018-05-26T10:32:25.504Z,945.68
2018-05-26T10:33:33.654Z,945.68
2018-05-26T10:34:41.736Z,945.69
2018-05-26T10:35:49.702Z,945.71
2018-05-26T10:36:57.798Z,945.68
2018-05-26T10:38:05.884Z,945.65
2018-05-26T10:39:13.947Z,945.64
2018-05-26T10:40:22.152Z,945.65
2018-05-26T10:41:30.062Z,945.64
2018-05-26T10:42:38.161Z,945.68
2018-05-26T10:43:46.246Z,945.67
2018-05-26T10:44:54.308Z,945.68
2018-05-26T10:46:02.476Z,945.66
2018-05-26T10:47:10.507Z,945.73
2018-05-26T10:48:18.520Z,945.69
2018-05-26T10:49:26.699Z,945.70
2018-05-26T10:50:34.677Z,945.72
2018-05-26T10:51:42.845Z,945.74
2018-05-26T10:52:50.824Z,945.73
2018-05-26T10:53:58.900Z,945.69
2018-05-26T10:55:06.978Z,945.71
2018-05-26T10:56:15.067Z,945.69
2018-05-26T10:57:23.236Z,945.70
2018-05-26T10:58:31.210Z,945.69
2018-05-26T10:59:39.423Z,945.72
2018-05-26T11:00:47.344Z,945.71
2018-05-26T11:01:55.449Z,945.63
2018-05-26T11:03:03.602Z,945.68
2018-05-26T11:04:11.628Z,945.68
2018-05-26T11:05:19.725Z,945.70
2018-05-26T11:06:27.723Z,945.69
2018-05-26T11:07:35.791Z,945.71
2018-05-26T11:08:43.969Z,945.71
2018-05-26T11:09:51.952Z,945.71
2018-05-26T11:11:00.010Z,945.69
2018-05-26T11:12:08.111Z,945.71
2018-05-26T11:13:16.172Z,945.69
2018-05-26T11:14:24.359Z,945.64
2018-05-26T11:15:32.325Z,945.69
2018-05-26T11:16:40.386Z,945.69
2018-05-26T11:17:48.781Z,945.73
2018-05-26T11:18:56.587Z,945.66
2018-05-26T11:20:04.732Z,945.71
2018-05-26T11:21:12.797Z,945.73
2018-05-26T11:22:20.768Z,945.70
2018-05-26T11:23:28.858Z,945.64
2018-05-26T11:24:36.998Z,945.66
2018-05-26T11:25:45.091Z,945.63
2018-05-26T11:26:53.068Z,945.59
2018-05-26T11:28:01.243Z,945.63
2018-05-26T11:29:09.196Z,945.60
2018-05-26T11:30:17.293Z,945.61
2018-05-26T11:31:25.483Z,945.64
2018-05-26T11:32:33.444Z,945.62
2018-05-26T11:33:41.522Z,945.65
2018-05-26T11:34:49.568Z,945.62
2018-05-26T11:35:57.684Z,945.59
2018-05-26T11:37:05.980Z,945.57
2018-05-26T11:38:13.818Z,945.56
2018-05-26T11:39:21.872Z,945.57
2018-05-26T11:40:29.952Z,945.52
2018-05-26T11:41:38.027Z,945.51
2018-05-26T11:42:46.207Z,945.53
2018-05-26T11:43:54.194Z,945.53
2018-05-26T11:45:02.266Z,945.50
2018-05-26T11:46:10.386Z,945.53
2018-05-26T11:47:18.411Z,945.52
2018-05-26T11:48:26.580Z,945.52
2018-05-26T11:49:34.558Z,945.54
2018-05-26T11:50:42.660Z,945.55
2018-05-26T11:51:50.726Z,945.51
2018-05-26T11:52:58.907Z,945.52
2018-05-26T11:54:06.951Z,945.51
2018-05-26T11:55:14.931Z,945.53
2018-05-26T11:56:23.011Z,945.56
2018-05-26T11:57:31.086Z,945.54
2018-05-26T11:58:39.137Z,945.59
2018-05-26T11:59:47.327Z,945.58
2018-05-26T12:00:55.310Z,945.56
2018-05-26T12:02:03.414Z,945.60
2018-05-26T12:03:11.463Z,945.58
2018-05-26T12:04:19.513Z,945.57
2018-05-26T12:05:27.702Z,945.59
2018-05-26T12:06:35.678Z,945.62
2018-05-26T12:07:43.817Z,945.65
2018-05-26T12:08:51.919Z,945.64
2018-05-26T12:09:59.883Z,945.64
2018-05-26T12:11:08.233Z,945.64
2018-05-26T12:12:16.051Z,945.61
2018-05-26T12:13:24.135Z,945.62
2018-05-26T12:14:32.206Z,945.60
2018-05-26T12:15:40.276Z,945.63
2018-05-26T12:16:48.444Z,945.57
2018-05-26T12:17:56.431Z,945.59
2018-05-26T12:19:04.499Z,945.58
2018-05-26T12:20:12.562Z,945.58
2018-05-26T12:21:20.692Z,945.59
2018-05-26T12:22:28.811Z,945.61
2018-05-26T12:23:36.802Z,945.60
2018-05-26T12:24:44.979Z,945.61
2018-05-26T12:25:52.939Z,945.59
2018-05-26T12:27:01.019Z,945.56
2018-05-26T12:28:09.181Z,945.55
2018-05-26T12:29:17.195Z,945.53
2018-05-26T12:30:25.252Z,945.56
2018-05-26T12:31:33.318Z,945.52
2018-05-26T12:32:41.423Z,945.56
2018-05-26T12:33:49.583Z,945.51
2018-05-26T12:34:57.542Z,945.47
2018-05-26T12:36:05.637Z,945.51
2018-05-26T12:37:13.715Z,945.49
2018-05-26T12:38:21.777Z,945.47
2018-05-26T12:39:29.946Z,945.46
2018-05-26T12:40:38.010Z,945.50
2018-05-26T12:41:46.012Z,945.42
2018-05-26T12:42:54.071Z,945.43
2018-05-26T12:44:02.133Z,945.43
2018-05-26T12:45:10.436Z,945.44
2018-05-26T12:46:18.276Z,945.45
2018-05-26T12:47:26.358Z,945.44
2018-05-26T12:48:34.448Z,945.42
2018-05-26T12:49:42.527Z,945.43
2018-05-26T12:50:50.689Z,945.48
2018-05-26T12:51:58.667Z,945.48
2018-05-26T12:53:06.868Z,945.47
2018-05-26T12:54:14.818Z,945.48
2018-05-26T12:55:22.900Z,945.46
2018-05-26T12:56:31.055Z,945.46
2018-05-26T12:57:39.046Z,945.42
2018-05-26T12:58:47.128Z,945.51
2018-05-26T12:59:55.192Z,945.50
2018-05-26T13:01:03.259Z,945.50
2018-05-26T13:02:11.441Z,945.50
2018-05-26T13:03:19.425Z,945.50
2018-05-26T13:04:27.533Z,945.52
2018-05-26T13:05:35.552Z,945.50
2018-05-26T13:06:43.648Z,945.43
2018-05-26T13:07:51.823Z,945.39
2018-05-26T13:08:59.783Z,945.36
2018-05-26T13:10:07.867Z,945.34
2018-05-26T13:11:15.936Z,945.37
2018-05-26T13:12:24.124Z,945.32
2018-05-26T13:13:32.189Z,945.28
2018-05-26T13:14:40.149Z,945.24
2018-05-26T13:15:48.236Z,945.24
2018-05-26T13:16:56.303Z,945.25
2018-05-26T13:18:04.398Z,945.26
2018-05-26T13:19:12.563Z,945.27
2018-05-26T13:20:20.543Z,945.32
2018-05-26T13:21:28.625Z,945.35
2018-05-26T13:22:36.692Z,945.33
2018-05-26T13:23:44.762Z,945.36
2018-05-26T13:24:52.938Z,945.37
2018-05-26T13:26:00.906Z,945.35
2018-05-26T13:27:08.979Z,945.36
2018-05-26T13:28:17.151Z,945.36
2018-05-26T13:29:25.127Z,945.39
2018-05-26T13:30:33.321Z,945.37
2018-05-26T13:31:41.280Z,945.40
2018-05-26T13:32:49.339Z,945.36
2018-05-26T13:33:57.429Z,945.36
2018-05-26T13:35:05.508Z,945.35
2018-05-26T13:36:13.691Z,945.34
2018-05-26T13:37:21.650Z,945.32
2018-05-26T13:38:29.699Z,945.34
2018-05-26T13:39:37.811Z,945.35
2018-05-26T13:40:45.876Z,945.39
2018-05-26T13:41:54.041Z,945.40
2018-05-26T13:43:02.025Z,945.43
2018-05-26T13:44:10.184Z,945.46
2018-05-26T13:45:18.171Z,945.47
2018-05-26T13:46:26.242Z,945.44
2018-05-26T13:47:34.403Z,945.43
2018-05-26T13:48:42.394Z,945.45
2018-05-26T13:49:50.486Z,945.43
2018-05-26T13:50:58.547Z,945.40
2018-05-26T13:52:06.628Z,945.37
2018-05-26T13:53:14.891Z,945.40
2018-05-26T13:54:22.787Z,945.35
2018-05-26T13:55:30.904Z,945.37
2018-05-26T13:56:38.925Z,945.34
2018-05-26T13:57:46.996Z,945.33
2018-05-26T13:58:55.161Z,945.36
2018-05-26T14:00:03.238Z,945.36
2018-05-26T14:01:11.209Z,945.35
2018-05-26T14:02:19.277Z,945.34
2018-05-26T14:03:27.369Z,945.36
2018-05-26T14:04:35.557Z,945.34
2018-05-26T14:05:43.503Z,945.34
2018-05-26T14:06:51.591Z,945.30
2018-05-26T14:07:59.619Z,945.30
2018-05-26T14:09:07.738Z,945.28